Terminal Aerodrome Forecast
Issued by NWS

Home | Current Version | Previous Version | Text Only | Print | Product List | Glossary On
Versions: 1 2 3 4 5 6 7 8 9 10 11 12 13 14 15 16 17 18 19 20
000
FTUS43 KDTX 252050 AAA
TAFYIP
TAF AMD
KYIP 252050Z 2521/2618 29018G30KT P6SM SKC
     FM260000 29012KT P6SM SKC
     FM260300 27006KT P6SM SKC=

USA.gov is the U.S. government's official web portal to all federal, state and local government web resources and services.